Popsquash, Vermont
Current Conditions -  °F | °C
As of 8:55 AM on Thursday 30 Oct 2014 (Local Time) from KFSO Reporting Station
Overcast Overcast  
Wind Chill:   Ceiling: 3600
Heat Index:   Visibility: 10mi
Dew Point:   Wind: 6mph
Humidity: 77%   Direction: 290°WNW
Pressure: 29.95"   Gusts: NA
Location:  44.9002°N, 73.1493°W
Report Text: KFSO 301255Z AUTO 29005KT 10SM OVC036 07/03 A2995 RMK AO2 T00660028
Loading
Personal Weather Stations






























Interactive Weather Map
Tropical Storm Tracking
New forecast layout! Learn more

10-Day Weather Forecast

Advertisements
Track Severe Weather on mobile